sensor_id;sensor_type;location;lat;lon;timestamp;P1;durP1;ratioP1;P2;durP2;ratioP2
8312;SDS011;4194;43.408;24.626;2023-04-16T00:00:46;3.80;;;1.80;;
8312;SDS011;4194;43.408;24.626;2023-04-16T00:03:12;6.40;;;1.80;;
8312;SDS011;4194;43.408;24.626;2023-04-16T00:05:38;2.93;;;1.40;;
8312;SDS011;4194;43.408;24.626;2023-04-16T00:08:04;3.57;;;1.57;;
8312;SDS011;4194;43.408;24.626;2023-04-16T00:10:30;3.40;;;1.70;;
8312;SDS011;4194;43.408;24.626;2023-04-16T00:12:56;3.07;;;1.53;;
8312;SDS011;4194;43.408;24.626;2023-04-16T00:15:22;3.67;;;1.47;;
8312;SDS011;4194;43.408;24.626;2023-04-16T00:17:47;2.87;;;1.67;;
8312;SDS011;4194;43.408;24.626;2023-04-16T00:20:13;5.47;;;1.90;;
8312;SDS011;4194;43.408;24.626;2023-04-16T00:22:39;3.07;;;1.80;;
8312;SDS011;4194;43.408;24.626;2023-04-16T00:25:05;3.67;;;1.60;;
8312;SDS011;4194;43.408;24.626;2023-04-16T00:27:31;4.87;;;2.03;;
8312;SDS011;4194;43.408;24.626;2023-04-16T00:29:56;2.10;;;1.40;;
8312;SDS011;4194;43.408;24.626;2023-04-16T00:32:22;3.60;;;1.90;;
8312;SDS011;4194;43.408;24.626;2023-04-16T00:34:48;3.80;;;2.03;;
8312;SDS011;4194;43.408;24.626;2023-04-16T00:37:13;4.03;;;1.67;;
8312;SDS011;4194;43.408;24.626;2023-04-16T00:39:39;3.63;;;2.10;;
8312;SDS011;4194;43.408;24.626;2023-04-16T00:42:04;4.80;;;1.70;;
8312;SDS011;4194;43.408;24.626;2023-04-16T00:44:30;2.07;;;1.60;;
8312;SDS011;4194;43.408;24.626;2023-04-16T00:46:58;4.57;;;2.20;;
8312;SDS011;4194;43.408;24.626;2023-04-16T00:49:25;3.77;;;2.37;;
8312;SDS011;4194;43.408;24.626;2023-04-16T00:51:51;4.27;;;1.93;;
8312;SDS011;4194;43.408;24.626;2023-04-16T00:54:17;4.33;;;2.60;;
8312;SDS011;4194;43.408;24.626;2023-04-16T00:56:43;6.63;;;3.87;;
8312;SDS011;4194;43.408;24.626;2023-04-16T00:59:09;4.83;;;3.40;;
8312;SDS011;4194;43.408;24.626;2023-04-16T01:01:35;4.73;;;3.30;;
8312;SDS011;4194;43.408;24.626;2023-04-16T01:04:01;5.77;;;2.60;;
8312;SDS011;4194;43.408;24.626;2023-04-16T01:06:26;4.03;;;2.57;;
8312;SDS011;4194;43.408;24.626;2023-04-16T01:08:52;5.60;;;2.30;;
8312;SDS011;4194;43.408;24.626;2023-04-16T01:11:18;3.23;;;2.20;;
8312;SDS011;4194;43.408;24.626;2023-04-16T01:13:43;3.70;;;2.10;;
8312;SDS011;4194;43.408;24.626;2023-04-16T01:16:10;2.30;;;1.87;;
8312;SDS011;4194;43.408;24.626;2023-04-16T01:18:36;2.60;;;2.17;;
8312;SDS011;4194;43.408;24.626;2023-04-16T01:21:03;5.37;;;2.37;;
8312;SDS011;4194;43.408;24.626;2023-04-16T01:23:29;3.77;;;2.00;;
8312;SDS011;4194;43.408;24.626;2023-04-16T01:25:55;5.73;;;2.30;;
8312;SDS011;4194;43.408;24.626;2023-04-16T01:28:21;3.57;;;2.10;;
8312;SDS011;4194;43.408;24.626;2023-04-16T01:30:47;2.33;;;1.90;;
8312;SDS011;4194;43.408;24.626;2023-04-16T01:33:13;7.63;;;2.40;;
8312;SDS011;4194;43.408;24.626;2023-04-16T01:35:39;4.03;;;2.23;;
8312;SDS011;4194;43.408;24.626;2023-04-16T01:38:06;2.60;;;1.53;;
8312;SDS011;4194;43.408;24.626;2023-04-16T01:40:33;3.23;;;2.20;;
8312;SDS011;4194;43.408;24.626;2023-04-16T01:42:59;18.03;;;16.07;;
8312;SDS011;4194;43.408;24.626;2023-04-16T01:45:25;12.37;;;11.00;;
8312;SDS011;4194;43.408;24.626;2023-04-16T01:47:50;7.63;;;3.60;;
8312;SDS011;4194;43.408;24.626;2023-04-16T01:50:17;3.40;;;2.33;;
8312;SDS011;4194;43.408;24.626;2023-04-16T01:52:43;4.87;;;2.13;;
8312;SDS011;4194;43.408;24.626;2023-04-16T01:55:09;3.50;;;2.40;;
8312;SDS011;4194;43.408;24.626;2023-04-16T01:57:35;3.13;;;2.20;;
8312;SDS011;4194;43.408;24.626;2023-04-16T02:00:02;4.13;;;1.90;;
8312;SDS011;4194;43.408;24.626;2023-04-16T02:02:28;4.83;;;1.90;;
8312;SDS011;4194;43.408;24.626;2023-04-16T02:04:54;4.37;;;2.27;;
8312;SDS011;4194;43.408;24.626;2023-04-16T02:07:23;4.23;;;1.97;;
8312;SDS011;4194;43.408;24.626;2023-04-16T02:09:49;4.20;;;2.43;;
8312;SDS011;4194;43.408;24.626;2023-04-16T02:12:15;4.93;;;3.10;;
8312;SDS011;4194;43.408;24.626;2023-04-16T02:14:41;3.43;;;2.33;;
8312;SDS011;4194;43.408;24.626;2023-04-16T02:17:07;3.00;;;2.47;;
8312;SDS011;4194;43.408;24.626;2023-04-16T02:19:33;5.50;;;3.67;;
8312;SDS011;4194;43.408;24.626;2023-04-16T02:21:59;4.80;;;3.40;;
8312;SDS011;4194;43.408;24.626;2023-04-16T02:24:25;5.20;;;3.27;;
8312;SDS011;4194;43.408;24.626;2023-04-16T02:26:51;4.37;;;3.00;;
8312;SDS011;4194;43.408;24.626;2023-04-16T02:29:17;5.30;;;2.97;;
8312;SDS011;4194;43.408;24.626;2023-04-16T02:31:43;7.30;;;3.20;;
8312;SDS011;4194;43.408;24.626;2023-04-16T02:34:10;4.27;;;2.03;;
8312;SDS011;4194;43.408;24.626;2023-04-16T02:36:36;4.03;;;2.30;;
8312;SDS011;4194;43.408;24.626;2023-04-16T02:39:02;4.93;;;2.20;;
8312;SDS011;4194;43.408;24.626;2023-04-16T02:41:28;6.40;;;2.40;;
8312;SDS011;4194;43.408;24.626;2023-04-16T02:43:54;3.93;;;2.30;;
8312;SDS011;4194;43.408;24.626;2023-04-16T02:46:20;5.40;;;2.17;;
8312;SDS011;4194;43.408;24.626;2023-04-16T02:48:46;6.33;;;1.83;;
8312;SDS011;4194;43.408;24.626;2023-04-16T02:51:11;4.37;;;2.40;;
8312;SDS011;4194;43.408;24.626;2023-04-16T02:53:37;3.57;;;2.23;;
8312;SDS011;4194;43.408;24.626;2023-04-16T02:56:03;5.63;;;2.43;;
8312;SDS011;4194;43.408;24.626;2023-04-16T02:58:30;3.20;;;2.10;;
8312;SDS011;4194;43.408;24.626;2023-04-16T03:00:56;5.17;;;2.83;;
8312;SDS011;4194;43.408;24.626;2023-04-16T03:03:21;4.07;;;2.90;;
8312;SDS011;4194;43.408;24.626;2023-04-16T03:05:48;4.03;;;2.73;;
8312;SDS011;4194;43.408;24.626;2023-04-16T03:08:13;5.50;;;2.87;;
8312;SDS011;4194;43.408;24.626;2023-04-16T03:10:39;6.00;;;3.13;;
8312;SDS011;4194;43.408;24.626;2023-04-16T03:13:05;6.20;;;3.37;;
8312;SDS011;4194;43.408;24.626;2023-04-16T03:15:31;8.30;;;2.70;;
8312;SDS011;4194;43.408;24.626;2023-04-16T03:17:57;7.20;;;3.30;;
8312;SDS011;4194;43.408;24.626;2023-04-16T03:20:23;5.63;;;2.60;;
8312;SDS011;4194;43.408;24.626;2023-04-16T03:22:49;3.07;;;2.50;;
8312;SDS011;4194;43.408;24.626;2023-04-16T03:25:16;4.90;;;2.80;;
8312;SDS011;4194;43.408;24.626;2023-04-16T03:27:42;6.87;;;3.13;;
8312;SDS011;4194;43.408;24.626;2023-04-16T03:30:11;7.07;;;3.50;;
8312;SDS011;4194;43.408;24.626;2023-04-16T03:32:38;6.23;;;4.13;;
8312;SDS011;4194;43.408;24.626;2023-04-16T03:35:05;6.63;;;5.13;;
8312;SDS011;4194;43.408;24.626;2023-04-16T03:37:31;6.77;;;4.90;;
8312;SDS011;4194;43.408;24.626;2023-04-16T03:39:57;5.10;;;3.20;;
8312;SDS011;4194;43.408;24.626;2023-04-16T03:42:23;6.37;;;3.63;;
8312;SDS011;4194;43.408;24.626;2023-04-16T03:44:49;5.97;;;2.63;;
8312;SDS011;4194;43.408;24.626;2023-04-16T03:47:15;5.87;;;2.43;;
8312;SDS011;4194;43.408;24.626;2023-04-16T03:49:40;4.07;;;2.50;;
8312;SDS011;4194;43.408;24.626;2023-04-16T03:52:06;4.17;;;2.50;;
8312;SDS011;4194;43.408;24.626;2023-04-16T03:54:32;6.90;;;2.73;;
8312;SDS011;4194;43.408;24.626;2023-04-16T03:56:57;6.13;;;3.30;;
8312;SDS011;4194;43.408;24.626;2023-04-16T03:59:23;11.37;;;3.33;;
8312;SDS011;4194;43.408;24.626;2023-04-16T04:01:49;7.17;;;4.23;;
8312;SDS011;4194;43.408;24.626;2023-04-16T04:04:14;10.23;;;4.43;;
8312;SDS011;4194;43.408;24.626;2023-04-16T04:06:40;8.67;;;5.00;;
8312;SDS011;4194;43.408;24.626;2023-04-16T04:09:06;9.60;;;4.00;;
8312;SDS011;4194;43.408;24.626;2023-04-16T04:11:32;9.23;;;4.23;;
8312;SDS011;4194;43.408;24.626;2023-04-16T04:13:57;5.47;;;3.53;;
8312;SDS011;4194;43.408;24.626;2023-04-16T04:16:23;5.70;;;3.73;;
8312;SDS011;4194;43.408;24.626;2023-04-16T04:18:49;5.80;;;4.07;;
8312;SDS011;4194;43.408;24.626;2023-04-16T04:21:15;7.13;;;3.43;;
8312;SDS011;4194;43.408;24.626;2023-04-16T04:23:40;3.60;;;2.60;;
8312;SDS011;4194;43.408;24.626;2023-04-16T04:26:07;4.63;;;3.40;;
8312;SDS011;4194;43.408;24.626;2023-04-16T04:28:33;6.20;;;3.33;;
8312;SDS011;4194;43.408;24.626;2023-04-16T04:30:59;5.20;;;3.13;;
8312;SDS011;4194;43.408;24.626;2023-04-16T04:33:26;7.30;;;3.07;;
8312;SDS011;4194;43.408;24.626;2023-04-16T04:35:52;4.73;;;2.80;;
8312;SDS011;4194;43.408;24.626;2023-04-16T04:38:19;6.77;;;3.00;;
8312;SDS011;4194;43.408;24.626;2023-04-16T04:43:37;6.67;;;4.13;;
8312;SDS011;4194;43.408;24.626;2023-04-16T04:46:02;7.33;;;4.97;;
8312;SDS011;4194;43.408;24.626;2023-04-16T04:48:28;6.20;;;4.83;;
8312;SDS011;4194;43.408;24.626;2023-04-16T04:50:54;6.40;;;3.80;;
8312;SDS011;4194;43.408;24.626;2023-04-16T04:53:20;8.87;;;4.40;;
8312;SDS011;4194;43.408;24.626;2023-04-16T04:55:45;6.83;;;3.73;;
8312;SDS011;4194;43.408;24.626;2023-04-16T04:58:11;5.10;;;3.47;;
8312;SDS011;4194;43.408;24.626;2023-04-16T05:00:37;4.43;;;3.10;;
8312;SDS011;4194;43.408;24.626;2023-04-16T05:03:04;4.83;;;2.93;;
8312;SDS011;4194;43.408;24.626;2023-04-16T05:05:30;3.57;;;2.93;;
8312;SDS011;4194;43.408;24.626;2023-04-16T05:07:56;7.53;;;3.10;;
8312;SDS011;4194;43.408;24.626;2023-04-16T05:10:22;6.73;;;2.70;;
8312;SDS011;4194;43.408;24.626;2023-04-16T05:12:47;4.03;;;2.70;;
8312;SDS011;4194;43.408;24.626;2023-04-16T05:15:13;3.53;;;2.53;;
8312;SDS011;4194;43.408;24.626;2023-04-16T05:17:39;4.80;;;2.30;;
8312;SDS011;4194;43.408;24.626;2023-04-16T05:20:06;4.60;;;2.60;;
8312;SDS011;4194;43.408;24.626;2023-04-16T05:22:33;2.83;;;2.43;;
8312;SDS011;4194;43.408;24.626;2023-04-16T05:24:58;4.17;;;2.33;;
8312;SDS011;4194;43.408;24.626;2023-04-16T05:27:24;4.07;;;2.80;;
8312;SDS011;4194;43.408;24.626;2023-04-16T05:29:50;5.63;;;2.70;;
8312;SDS011;4194;43.408;24.626;2023-04-16T05:32:15;3.57;;;2.77;;
8312;SDS011;4194;43.408;24.626;2023-04-16T05:34:41;6.43;;;3.80;;
8312;SDS011;4194;43.408;24.626;2023-04-16T05:37:07;4.67;;;3.97;;
8312;SDS011;4194;43.408;24.626;2023-04-16T05:39:32;9.33;;;3.80;;
8312;SDS011;4194;43.408;24.626;2023-04-16T05:41:58;4.60;;;2.97;;
8312;SDS011;4194;43.408;24.626;2023-04-16T05:44:24;6.53;;;3.60;;
8312;SDS011;4194;43.408;24.626;2023-04-16T05:46:50;5.17;;;3.53;;
8312;SDS011;4194;43.408;24.626;2023-04-16T05:49:15;6.20;;;3.80;;
8312;SDS011;4194;43.408;24.626;2023-04-16T05:51:42;5.53;;;3.20;;
8312;SDS011;4194;43.408;24.626;2023-04-16T05:54:08;7.27;;;3.67;;
8312;SDS011;4194;43.408;24.626;2023-04-16T05:56:34;5.10;;;3.40;;
8312;SDS011;4194;43.408;24.626;2023-04-16T05:58:59;8.03;;;3.63;;
8312;SDS011;4194;43.408;24.626;2023-04-16T06:01:25;6.03;;;3.97;;
8312;SDS011;4194;43.408;24.626;2023-04-16T06:03:51;6.33;;;3.67;;
8312;SDS011;4194;43.408;24.626;2023-04-16T06:06:16;9.70;;;3.93;;
8312;SDS011;4194;43.408;24.626;2023-04-16T06:08:42;7.43;;;3.30;;
8312;SDS011;4194;43.408;24.626;2023-04-16T06:11:08;8.83;;;3.40;;
8312;SDS011;4194;43.408;24.626;2023-04-16T06:13:33;4.40;;;3.17;;
8312;SDS011;4194;43.408;24.626;2023-04-16T06:15:59;5.73;;;3.37;;
8312;SDS011;4194;43.408;24.626;2023-04-16T06:18:25;5.93;;;3.67;;
8312;SDS011;4194;43.408;24.626;2023-04-16T06:20:50;5.90;;;3.57;;
8312;SDS011;4194;43.408;24.626;2023-04-16T06:23:16;5.57;;;3.90;;
8312;SDS011;4194;43.408;24.626;2023-04-16T06:25:42;4.23;;;3.50;;
8312;SDS011;4194;43.408;24.626;2023-04-16T06:28:07;4.60;;;3.37;;
8312;SDS011;4194;43.408;24.626;2023-04-16T06:30:33;6.30;;;3.40;;
8312;SDS011;4194;43.408;24.626;2023-04-16T06:32:59;5.60;;;3.17;;
8312;SDS011;4194;43.408;24.626;2023-04-16T06:35:24;7.27;;;3.03;;
8312;SDS011;4194;43.408;24.626;2023-04-16T06:37:50;4.50;;;3.47;;
8312;SDS011;4194;43.408;24.626;2023-04-16T06:40:16;9.48;;;3.22;;
8312;SDS011;4194;43.408;24.626;2023-04-16T06:42:42;5.63;;;3.13;;
8312;SDS011;4194;43.408;24.626;2023-04-16T06:45:07;3.37;;;2.80;;
8312;SDS011;4194;43.408;24.626;2023-04-16T06:47:33;5.73;;;3.43;;
8312;SDS011;4194;43.408;24.626;2023-04-16T06:49:59;5.43;;;3.60;;
8312;SDS011;4194;43.408;24.626;2023-04-16T06:52:25;5.47;;;3.80;;
8312;SDS011;4194;43.408;24.626;2023-04-16T06:54:51;6.10;;;3.60;;
8312;SDS011;4194;43.408;24.626;2023-04-16T06:57:17;6.37;;;3.70;;
8312;SDS011;4194;43.408;24.626;2023-04-16T06:59:42;5.97;;;3.80;;
8312;SDS011;4194;43.408;24.626;2023-04-16T07:02:09;5.53;;;2.70;;
8312;SDS011;4194;43.408;24.626;2023-04-16T07:04:34;6.30;;;2.10;;
8312;SDS011;4194;43.408;24.626;2023-04-16T07:07:00;5.20;;;2.70;;
8312;SDS011;4194;43.408;24.626;2023-04-16T07:09:26;2.93;;;2.00;;
8312;SDS011;4194;43.408;24.626;2023-04-16T07:11:52;4.57;;;2.83;;
8312;SDS011;4194;43.408;24.626;2023-04-16T07:14:21;3.13;;;1.93;;
8312;SDS011;4194;43.408;24.626;2023-04-16T07:16:46;3.90;;;2.30;;
8312;SDS011;4194;43.408;24.626;2023-04-16T07:19:12;9.03;;;2.20;;
8312;SDS011;4194;43.408;24.626;2023-04-16T07:21:38;3.53;;;2.57;;
8312;SDS011;4194;43.408;24.626;2023-04-16T07:24:06;3.17;;;2.33;;
8312;SDS011;4194;43.408;24.626;2023-04-16T07:26:31;7.80;;;2.80;;
8312;SDS011;4194;43.408;24.626;2023-04-16T07:28:57;4.80;;;2.60;;
8312;SDS011;4194;43.408;24.626;2023-04-16T07:31:23;3.87;;;2.47;;
8312;SDS011;4194;43.408;24.626;2023-04-16T07:33:53;3.13;;;2.43;;
8312;SDS011;4194;43.408;24.626;2023-04-16T07:36:19;3.53;;;2.07;;
8312;SDS011;4194;43.408;24.626;2023-04-16T07:38:45;2.83;;;2.20;;
8312;SDS011;4194;43.408;24.626;2023-04-16T07:41:11;3.47;;;2.87;;
8312;SDS011;4194;43.408;24.626;2023-04-16T07:43:37;5.00;;;3.00;;
8312;SDS011;4194;43.408;24.626;2023-04-16T07:46:02;4.03;;;2.50;;
8312;SDS011;4194;43.408;24.626;2023-04-16T07:48:28;4.60;;;2.57;;
8312;SDS011;4194;43.408;24.626;2023-04-16T07:50:54;3.17;;;2.60;;
8312;SDS011;4194;43.408;24.626;2023-04-16T07:53:20;5.43;;;2.70;;
8312;SDS011;4194;43.408;24.626;2023-04-16T07:55:45;4.13;;;2.70;;
8312;SDS011;4194;43.408;24.626;2023-04-16T07:58:11;4.40;;;3.00;;
8312;SDS011;4194;43.408;24.626;2023-04-16T08:00:37;3.50;;;3.00;;
8312;SDS011;4194;43.408;24.626;2023-04-16T08:03:03;4.93;;;2.90;;
8312;SDS011;4194;43.408;24.626;2023-04-16T08:05:29;4.47;;;3.37;;
8312;SDS011;4194;43.408;24.626;2023-04-16T08:07:55;6.97;;;2.83;;
8312;SDS011;4194;43.408;24.626;2023-04-16T08:10:20;3.50;;;2.67;;
8312;SDS011;4194;43.408;24.626;2023-04-16T08:12:46;4.37;;;2.20;;
8312;SDS011;4194;43.408;24.626;2023-04-16T08:15:12;6.43;;;3.13;;
8312;SDS011;4194;43.408;24.626;2023-04-16T08:17:37;6.60;;;2.90;;
8312;SDS011;4194;43.408;24.626;2023-04-16T08:20:03;4.87;;;2.70;;
8312;SDS011;4194;43.408;24.626;2023-04-16T08:22:30;3.67;;;2.60;;
8312;SDS011;4194;43.408;24.626;2023-04-16T08:24:57;6.13;;;2.57;;
8312;SDS011;4194;43.408;24.626;2023-04-16T08:27:23;4.57;;;2.80;;
8312;SDS011;4194;43.408;24.626;2023-04-16T08:29:48;4.07;;;2.43;;
8312;SDS011;4194;43.408;24.626;2023-04-16T08:32:14;5.47;;;2.63;;
8312;SDS011;4194;43.408;24.626;2023-04-16T08:34:40;5.27;;;2.57;;
8312;SDS011;4194;43.408;24.626;2023-04-16T08:37:06;5.80;;;2.50;;
8312;SDS011;4194;43.408;24.626;2023-04-16T08:39:32;2.73;;;2.17;;
8312;SDS011;4194;43.408;24.626;2023-04-16T08:41:58;4.80;;;2.40;;
8312;SDS011;4194;43.408;24.626;2023-04-16T08:44:33;4.60;;;2.30;;
8312;SDS011;4194;43.408;24.626;2023-04-16T08:47:01;3.57;;;2.40;;
8312;SDS011;4194;43.408;24.626;2023-04-16T08:49:27;5.10;;;2.40;;
8312;SDS011;4194;43.408;24.626;2023-04-16T08:51:54;2.40;;;1.90;;
8312;SDS011;4194;43.408;24.626;2023-04-16T08:54:30;3.30;;;2.23;;
8312;SDS011;4194;43.408;24.626;2023-04-16T08:57:08;4.70;;;2.20;;
8312;SDS011;4194;43.408;24.626;2023-04-16T08:59:35;3.53;;;2.17;;
8312;SDS011;4194;43.408;24.626;2023-04-16T09:02:04;3.17;;;2.10;;
8312;SDS011;4194;43.408;24.626;2023-04-16T09:04:31;6.40;;;3.07;;
8312;SDS011;4194;43.408;24.626;2023-04-16T09:06:57;3.67;;;2.43;;
8312;SDS011;4194;43.408;24.626;2023-04-16T09:09:25;4.37;;;2.10;;
8312;SDS011;4194;43.408;24.626;2023-04-16T09:11:51;3.53;;;2.20;;
8312;SDS011;4194;43.408;24.626;2023-04-16T09:14:18;3.57;;;2.13;;
8312;SDS011;4194;43.408;24.626;2023-04-16T09:16:45;4.10;;;1.93;;
8312;SDS011;4194;43.408;24.626;2023-04-16T09:19:12;4.23;;;1.80;;
8312;SDS011;4194;43.408;24.626;2023-04-16T09:21:41;4.93;;;2.57;;
8312;SDS011;4194;43.408;24.626;2023-04-16T09:24:09;6.43;;;3.10;;
8312;SDS011;4194;43.408;24.626;2023-04-16T09:26:35;3.70;;;2.30;;
8312;SDS011;4194;43.408;24.626;2023-04-16T09:29:02;3.50;;;1.97;;
8312;SDS011;4194;43.408;24.626;2023-04-16T09:31:28;2.97;;;2.13;;
8312;SDS011;4194;43.408;24.626;2023-04-16T09:34:06;5.27;;;2.07;;
8312;SDS011;4194;43.408;24.626;2023-04-16T09:36:33;4.57;;;2.13;;
8312;SDS011;4194;43.408;24.626;2023-04-16T09:39:00;3.17;;;1.83;;
8312;SDS011;4194;43.408;24.626;2023-04-16T09:41:27;3.60;;;2.20;;
8312;SDS011;4194;43.408;24.626;2023-04-16T09:43:55;3.10;;;2.13;;
8312;SDS011;4194;43.408;24.626;2023-04-16T09:48:55;3.17;;;2.20;;
8312;SDS011;4194;43.408;24.626;2023-04-16T09:51:21;3.03;;;2.13;;
8312;SDS011;4194;43.408;24.626;2023-04-16T09:53:50;6.97;;;2.40;;
8312;SDS011;4194;43.408;24.626;2023-04-16T09:56:18;5.10;;;2.30;;
8312;SDS011;4194;43.408;24.626;2023-04-16T09:58:49;4.57;;;2.47;;
8312;SDS011;4194;43.408;24.626;2023-04-16T10:01:16;5.03;;;2.03;;
8312;SDS011;4194;43.408;24.626;2023-04-16T10:03:42;3.50;;;2.10;;
8312;SDS011;4194;43.408;24.626;2023-04-16T10:06:12;2.37;;;2.00;;
8312;SDS011;4194;43.408;24.626;2023-04-16T10:08:49;5.33;;;1.87;;
8312;SDS011;4194;43.408;24.626;2023-04-16T10:11:17;4.33;;;2.00;;
8312;SDS011;4194;43.408;24.626;2023-04-16T10:13:43;4.53;;;1.90;;
8312;SDS011;4194;43.408;24.626;2023-04-16T10:16:09;3.70;;;1.90;;
8312;SDS011;4194;43.408;24.626;2023-04-16T10:18:36;3.17;;;1.90;;
8312;SDS011;4194;43.408;24.626;2023-04-16T10:21:06;2.33;;;1.77;;
8312;SDS011;4194;43.408;24.626;2023-04-16T10:23:32;2.80;;;1.70;;
8312;SDS011;4194;43.408;24.626;2023-04-16T10:25:59;2.07;;;1.83;;
8312;SDS011;4194;43.408;24.626;2023-04-16T10:28:26;3.80;;;1.77;;
8312;SDS011;4194;43.408;24.626;2023-04-16T10:30:53;3.90;;;1.83;;
8312;SDS011;4194;43.408;24.626;2023-04-16T10:33:22;3.27;;;1.90;;
8312;SDS011;4194;43.408;24.626;2023-04-16T10:36:08;4.33;;;1.67;;
8312;SDS011;4194;43.408;24.626;2023-04-16T10:38:38;4.87;;;1.50;;
8312;SDS011;4194;43.408;24.626;2023-04-16T10:41:05;2.60;;;1.70;;
8312;SDS011;4194;43.408;24.626;2023-04-16T10:43:37;3.07;;;1.40;;
8312;SDS011;4194;43.408;24.626;2023-04-16T10:46:17;2.20;;;1.50;;
8312;SDS011;4194;43.408;24.626;2023-04-16T10:48:48;2.13;;;1.53;;
8312;SDS011;4194;43.408;24.626;2023-04-16T10:51:34;2.77;;;1.57;;
8312;SDS011;4194;43.408;24.626;2023-04-16T10:56:32;3.93;;;1.70;;
8312;SDS011;4194;43.408;24.626;2023-04-16T10:58:59;2.07;;;1.40;;
8312;SDS011;4194;43.408;24.626;2023-04-16T11:01:43;2.90;;;1.53;;
8312;SDS011;4194;43.408;24.626;2023-04-16T11:12:14;4.73;;;2.00;;
8312;SDS011;4194;43.408;24.626;2023-04-16T11:14:43;2.40;;;1.57;;
8312;SDS011;4194;43.408;24.626;2023-04-16T11:17:12;5.60;;;2.23;;
8312;SDS011;4194;43.408;24.626;2023-04-16T11:19:38;3.93;;;2.03;;
8312;SDS011;4194;43.408;24.626;2023-04-16T11:22:04;2.30;;;1.20;;
8312;SDS011;4194;43.408;24.626;2023-04-16T11:24:30;2.80;;;1.80;;
8312;SDS011;4194;43.408;24.626;2023-04-16T11:26:58;3.80;;;1.70;;
8312;SDS011;4194;43.408;24.626;2023-04-16T11:29:25;4.13;;;1.80;;
8312;SDS011;4194;43.408;24.626;2023-04-16T11:31:51;2.57;;;1.83;;
8312;SDS011;4194;43.408;24.626;2023-04-16T11:34:18;2.40;;;1.80;;
8312;SDS011;4194;43.408;24.626;2023-04-16T11:36:45;2.70;;;1.73;;
8312;SDS011;4194;43.408;24.626;2023-04-16T11:39:15;2.13;;;1.77;;
8312;SDS011;4194;43.408;24.626;2023-04-16T11:41:44;3.27;;;1.43;;
8312;SDS011;4194;43.408;24.626;2023-04-16T11:44:18;3.00;;;1.50;;
8312;SDS011;4194;43.408;24.626;2023-04-16T11:46:49;3.27;;;1.97;;
8312;SDS011;4194;43.408;24.626;2023-04-16T11:49:15;3.50;;;1.87;;
8312;SDS011;4194;43.408;24.626;2023-04-16T11:51:43;2.73;;;1.60;;
8312;SDS011;4194;43.408;24.626;2023-04-16T11:54:22;6.30;;;1.90;;
8312;SDS011;4194;43.408;24.626;2023-04-16T11:56:48;5.43;;;1.90;;
8312;SDS011;4194;43.408;24.626;2023-04-16T11:59:19;3.13;;;1.50;;
8312;SDS011;4194;43.408;24.626;2023-04-16T12:01:51;3.90;;;1.70;;
8312;SDS011;4194;43.408;24.626;2023-04-16T12:04:20;2.22;;;1.60;;
8312;SDS011;4194;43.408;24.626;2023-04-16T12:07:07;3.07;;;1.57;;
8312;SDS011;4194;43.408;24.626;2023-04-16T12:09:34;3.87;;;1.83;;
8312;SDS011;4194;43.408;24.626;2023-04-16T12:12:01;3.50;;;1.50;;
8312;SDS011;4194;43.408;24.626;2023-04-16T12:14:27;5.77;;;1.83;;
8312;SDS011;4194;43.408;24.626;2023-04-16T12:16:54;3.00;;;1.70;;
8312;SDS011;4194;43.408;24.626;2023-04-16T12:19:20;2.60;;;1.87;;
8312;SDS011;4194;43.408;24.626;2023-04-16T12:21:46;2.60;;;1.50;;
8312;SDS011;4194;43.408;24.626;2023-04-16T12:24:13;2.63;;;1.70;;
8312;SDS011;4194;43.408;24.626;2023-04-16T12:26:41;5.80;;;1.80;;
8312;SDS011;4194;43.408;24.626;2023-04-16T12:31:43;3.40;;;1.80;;
8312;SDS011;4194;43.408;24.626;2023-04-16T12:34:09;2.37;;;1.40;;
8312;SDS011;4194;43.408;24.626;2023-04-16T12:36:35;5.40;;;2.07;;
8312;SDS011;4194;43.408;24.626;2023-04-16T12:39:01;3.90;;;2.03;;
8312;SDS011;4194;43.408;24.626;2023-04-16T12:41:27;3.87;;;2.00;;
8312;SDS011;4194;43.408;24.626;2023-04-16T12:44:03;3.53;;;2.03;;
8312;SDS011;4194;43.408;24.626;2023-04-16T12:46:28;3.07;;;1.80;;
8312;SDS011;4194;43.408;24.626;2023-04-16T12:48:54;3.60;;;1.80;;
8312;SDS011;4194;43.408;24.626;2023-04-16T12:51:21;2.10;;;1.60;;
8312;SDS011;4194;43.408;24.626;2023-04-16T12:53:47;3.70;;;1.75;;
8312;SDS011;4194;43.408;24.626;2023-04-16T12:56:14;4.82;;;1.40;;
8312;SDS011;4194;43.408;24.626;2023-04-16T12:58:40;2.70;;;1.60;;
8312;SDS011;4194;43.408;24.626;2023-04-16T13:01:06;2.20;;;1.50;;
8312;SDS011;4194;43.408;24.626;2023-04-16T13:03:32;3.80;;;1.80;;
8312;SDS011;4194;43.408;24.626;2023-04-16T13:06:00;3.38;;;1.38;;
8312;SDS011;4194;43.408;24.626;2023-04-16T13:08:26;1.98;;;1.42;;
8312;SDS011;4194;43.408;24.626;2023-04-16T13:10:52;2.60;;;1.45;;
8312;SDS011;4194;43.408;24.626;2023-04-16T13:13:18;2.10;;;1.40;;
8312;SDS011;4194;43.408;24.626;2023-04-16T13:15:43;3.42;;;1.60;;
8312;SDS011;4194;43.408;24.626;2023-04-16T13:18:09;2.83;;;1.95;;
8312;SDS011;4194;43.408;24.626;2023-04-16T13:20:34;3.63;;;2.20;;
8312;SDS011;4194;43.408;24.626;2023-04-16T13:23:00;4.88;;;1.58;;
8312;SDS011;4194;43.408;24.626;2023-04-16T13:25:29;3.40;;;1.58;;
8312;SDS011;4194;43.408;24.626;2023-04-16T13:27:55;4.55;;;1.42;;
8312;SDS011;4194;43.408;24.626;2023-04-16T13:30:21;2.72;;;1.55;;
8312;SDS011;4194;43.408;24.626;2023-04-16T13:32:47;6.97;;;1.67;;
8312;SDS011;4194;43.408;24.626;2023-04-16T13:35:12;3.60;;;2.47;;
8312;SDS011;4194;43.408;24.626;2023-04-16T13:37:38;5.17;;;1.83;;
8312;SDS011;4194;43.408;24.626;2023-04-16T13:40:04;6.77;;;1.63;;
8312;SDS011;4194;43.408;24.626;2023-04-16T13:42:30;3.13;;;1.43;;
8312;SDS011;4194;43.408;24.626;2023-04-16T13:44:56;2.60;;;1.60;;
8312;SDS011;4194;43.408;24.626;2023-04-16T13:47:23;2.27;;;1.43;;
8312;SDS011;4194;43.408;24.626;2023-04-16T13:49:48;2.33;;;1.37;;
8312;SDS011;4194;43.408;24.626;2023-04-16T13:52:14;2.43;;;1.40;;
8312;SDS011;4194;43.408;24.626;2023-04-16T13:54:40;3.30;;;1.70;;
8312;SDS011;4194;43.408;24.626;2023-04-16T13:57:06;3.77;;;2.07;;
8312;SDS011;4194;43.408;24.626;2023-04-16T13:59:32;5.47;;;1.80;;
8312;SDS011;4194;43.408;24.626;2023-04-16T14:01:58;4.33;;;1.60;;
8312;SDS011;4194;43.408;24.626;2023-04-16T14:04:23;1.87;;;1.50;;
8312;SDS011;4194;43.408;24.626;2023-04-16T14:06:49;3.37;;;1.80;;
8312;SDS011;4194;43.408;24.626;2023-04-16T14:09:15;3.70;;;1.40;;
8312;SDS011;4194;43.408;24.626;2023-04-16T14:11:41;7.57;;;1.73;;
8312;SDS011;4194;43.408;24.626;2023-04-16T14:14:07;3.70;;;1.57;;
8312;SDS011;4194;43.408;24.626;2023-04-16T14:16:33;4.50;;;1.57;;
8312;SDS011;4194;43.408;24.626;2023-04-16T14:18:59;3.97;;;1.67;;
8312;SDS011;4194;43.408;24.626;2023-04-16T14:21:26;1.93;;;1.60;;
8312;SDS011;4194;43.408;24.626;2023-04-16T14:23:52;4.47;;;2.30;;
8312;SDS011;4194;43.408;24.626;2023-04-16T14:26:18;4.97;;;1.93;;
8312;SDS011;4194;43.408;24.626;2023-04-16T14:28:44;2.77;;;1.47;;
8312;SDS011;4194;43.408;24.626;2023-04-16T14:31:09;3.43;;;1.40;;
8312;SDS011;4194;43.408;24.626;2023-04-16T14:33:35;2.73;;;1.97;;
8312;SDS011;4194;43.408;24.626;2023-04-16T14:36:01;2.80;;;1.40;;
8312;SDS011;4194;43.408;24.626;2023-04-16T14:38:27;4.07;;;1.83;;
8312;SDS011;4194;43.408;24.626;2023-04-16T14:40:53;5.73;;;2.03;;
8312;SDS011;4194;43.408;24.626;2023-04-16T14:43:19;4.43;;;2.33;;
8312;SDS011;4194;43.408;24.626;2023-04-16T14:45:45;5.53;;;2.77;;
8312;SDS011;4194;43.408;24.626;2023-04-16T14:48:10;4.87;;;3.20;;
8312;SDS011;4194;43.408;24.626;2023-04-16T14:50:36;6.57;;;3.30;;
8312;SDS011;4194;43.408;24.626;2023-04-16T14:53:03;6.03;;;3.50;;
8312;SDS011;4194;43.408;24.626;2023-04-16T14:55:30;8.53;;;3.30;;
8312;SDS011;4194;43.408;24.626;2023-04-16T14:57:56;6.47;;;2.60;;
8312;SDS011;4194;43.408;24.626;2023-04-16T15:00:23;5.10;;;1.93;;
8312;SDS011;4194;43.408;24.626;2023-04-16T15:02:49;5.47;;;1.97;;
8312;SDS011;4194;43.408;24.626;2023-04-16T15:05:15;6.87;;;2.17;;
8312;SDS011;4194;43.408;24.626;2023-04-16T15:07:41;5.53;;;2.00;;
8312;SDS011;4194;43.408;24.626;2023-04-16T15:10:07;5.03;;;1.80;;
8312;SDS011;4194;43.408;24.626;2023-04-16T15:12:33;5.93;;;2.60;;
8312;SDS011;4194;43.408;24.626;2023-04-16T15:14:59;7.77;;;3.70;;